createdAt,value
2016-07-18T00:00:14.613Z,16.35
2016-07-18T00:00:44.631Z,16.24
2016-07-18T00:01:14.647Z,16.29
2016-07-18T00:01:44.663Z,16.24
2016-07-18T00:02:14.681Z,16.24
2016-07-18T00:02:44.689Z,16.23
2016-07-18T00:03:14.701Z,16.21
2016-07-18T00:03:44.722Z,16.24
2016-07-18T00:04:14.732Z,16.2
2016-07-18T00:04:44.748Z,16.16
2016-07-18T00:05:14.762Z,16.09
2016-07-18T00:05:44.777Z,16.13
2016-07-18T00:06:14.794Z,16.17
2016-07-18T00:06:44.812Z,16.12
2016-07-18T00:07:14.824Z,16.13
2016-07-18T00:07:44.837Z,16.08
2016-07-18T00:08:14.855Z,16.05
2016-07-18T00:08:44.859Z,16.05
2016-07-18T00:09:14.877Z,16.1
2016-07-18T00:09:44.897Z,16.02
2016-07-18T00:10:14.902Z,15.94
2016-07-18T00:10:44.917Z,15.92
2016-07-18T00:11:14.944Z,15.97
2016-07-18T00:11:44.946Z,15.98
2016-07-18T00:12:14.964Z,16.02
2016-07-18T00:12:44.269Z,16
2016-07-18T00:13:14.992Z,16.01
2016-07-18T00:13:45.005Z,15.95
2016-07-18T00:14:14.316Z,16.01
2016-07-18T00:14:45.039Z,16.08
2016-07-18T00:15:14.339Z,16.08
2016-07-18T00:15:45.059Z,16.02
2016-07-18T00:16:15.087Z,16.1
2016-07-18T00:16:45.094Z,16.04
2016-07-18T00:17:15.108Z,16.1
2016-07-18T00:17:45.125Z,16.08
2016-07-18T00:18:15.133Z,16.13
2016-07-18T00:18:45.152Z,16.01
2016-07-18T00:19:15.162Z,16.01
2016-07-18T00:19:45.185Z,16.04
2016-07-18T00:20:15.195Z,15.97
2016-07-18T00:20:45.217Z,15.92
2016-07-18T00:21:14.532Z,15.95
2016-07-18T00:21:45.240Z,15.95
2016-07-18T00:22:15.250Z,15.97
2016-07-18T00:22:45.271Z,16
2016-07-18T00:23:15.285Z,15.92
2016-07-18T00:23:45.296Z,15.94
2016-07-18T00:24:15.311Z,15.98
2016-07-18T00:24:45.323Z,15.98
2016-07-18T00:25:15.337Z,15.92
2016-07-18T00:25:45.359Z,15.9
2016-07-18T00:26:15.366Z,16
2016-07-18T00:26:45.400Z,15.95
2016-07-18T00:27:15.408Z,15.94
2016-07-18T00:27:45.410Z,15.94
2016-07-18T00:28:14.715Z,15.79
2016-07-18T00:28:45.442Z,15.84
2016-07-18T00:29:15.456Z,15.79
2016-07-18T00:29:45.481Z,15.72
2016-07-18T00:30:15.481Z,15.79
2016-07-18T00:30:44.793Z,15.77
2016-07-18T00:31:15.510Z,15.8
2016-07-18T00:31:45.524Z,15.84
2016-07-18T00:32:15.543Z,15.79
2016-07-18T00:32:45.553Z,15.79
2016-07-18T00:33:15.574Z,15.79
2016-07-18T00:33:45.582Z,15.75
2016-07-18T00:34:15.594Z,15.82
2016-07-18T00:34:45.611Z,15.8
2016-07-18T00:35:15.633Z,15.9
2016-07-18T00:35:45.649Z,15.77
2016-07-18T00:36:15.658Z,15.79
2016-07-18T00:36:45.667Z,15.82
2016-07-18T00:37:15.688Z,15.73
2016-07-18T00:37:45.699Z,15.79
2016-07-18T00:38:15.719Z,15.73
2016-07-18T00:38:45.726Z,15.79
2016-07-18T00:39:15.745Z,15.83
2016-07-18T00:39:45.768Z,15.79
2016-07-18T00:40:15.777Z,15.73
2016-07-18T00:40:45.785Z,15.86
2016-07-18T00:41:15.095Z,15.82
2016-07-18T00:41:45.813Z,15.88
2016-07-18T00:42:15.829Z,15.84
2016-07-18T00:42:45.843Z,15.88
2016-07-18T00:43:15.144Z,15.82
2016-07-18T00:43:45.867Z,15.79
2016-07-18T00:44:15.889Z,15.88
2016-07-18T00:44:45.904Z,15.73
2016-07-18T00:45:15.910Z,15.76
2016-07-18T00:45:45.931Z,15.7
2016-07-18T00:46:15.944Z,15.8
2016-07-18T00:46:45.956Z,15.73
2016-07-18T00:47:15.966Z,15.73
2016-07-18T00:47:45.991Z,15.72
2016-07-18T00:48:16.001Z,15.72
2016-07-18T00:48:46.011Z,15.7
2016-07-18T00:49:16.028Z,15.72
2016-07-18T00:49:46.054Z,15.76
2016-07-18T00:50:15.355Z,15.68
2016-07-18T00:50:44.654Z,15.64
2016-07-18T00:51:16.083Z,15.61
2016-07-18T00:51:45.391Z,15.61
2016-07-18T00:52:16.115Z,15.65
2016-07-18T00:52:46.135Z,15.67
2016-07-18T00:53:16.146Z,15.58
2016-07-18T00:53:46.166Z,15.64
2016-07-18T00:54:16.183Z,15.59
2016-07-18T00:54:45.478Z,15.65
2016-07-18T00:55:16.214Z,15.68
2016-07-18T00:55:46.216Z,15.72
2016-07-18T00:56:16.233Z,15.64
2016-07-18T00:56:46.245Z,15.68
2016-07-18T00:57:15.557Z,15.75
2016-07-18T00:57:46.271Z,15.65
2016-07-18T00:58:16.289Z,15.7
2016-07-18T00:58:46.302Z,15.7
2016-07-18T00:59:16.319Z,15.62
2016-07-18T00:59:46.329Z,15.68
2016-07-18T01:00:16.349Z,15.62
2016-07-18T01:00:46.364Z,15.68
2016-07-18T01:01:16.376Z,15.65
2016-07-18T01:01:46.392Z,15.62
2016-07-18T01:02:16.406Z,15.76
2016-07-18T01:02:46.420Z,15.62
2016-07-18T01:03:16.435Z,15.59
2016-07-18T01:03:45.743Z,15.62
2016-07-18T01:04:16.465Z,15.61
2016-07-18T01:04:46.475Z,15.62
2016-07-18T01:05:16.497Z,15.72
2016-07-18T01:05:46.504Z,15.58
2016-07-18T01:06:16.516Z,15.59
2016-07-18T01:06:46.538Z,15.51
2016-07-18T01:07:16.551Z,15.55
2016-07-18T01:07:46.572Z,15.49
2016-07-18T01:08:15.867Z,15.55
2016-07-18T01:08:46.590Z,15.54
2016-07-18T01:09:16.605Z,15.57
2016-07-18T01:09:46.625Z,15.46
2016-07-18T01:10:16.633Z,15.55
2016-07-18T01:10:46.650Z,15.52
2016-07-18T01:11:16.671Z,15.57
2016-07-18T01:11:46.676Z,15.44
2016-07-18T01:12:16.686Z,15.47
2016-07-18T01:12:46.706Z,15.4
2016-07-18T01:13:16.719Z,15.52
2016-07-18T01:13:46.745Z,15.55
2016-07-18T01:14:16.746Z,15.57
2016-07-18T01:14:46.780Z,15.51
2016-07-18T01:15:16.778Z,15.51
2016-07-18T01:15:46.794Z,15.55
2016-07-18T01:16:16.812Z,15.52
2016-07-18T01:16:46.826Z,15.44
2016-07-18T01:17:16.834Z,15.47
2016-07-18T01:17:46.853Z,15.47
2016-07-18T01:18:16.868Z,15.49
2016-07-18T01:18:46.880Z,15.52
2016-07-18T01:19:16.896Z,15.42
2016-07-18T01:19:46.909Z,15.42
2016-07-18T01:20:16.916Z,15.42
2016-07-18T01:20:46.933Z,15.43
2016-07-18T01:21:16.955Z,15.43
2016-07-18T01:21:46.259Z,15.37
2016-07-18T01:22:16.977Z,15.43
2016-07-18T01:22:46.990Z,15.43
2016-07-18T01:23:17.004Z,15.39
2016-07-18T01:23:47.024Z,15.42
2016-07-18T01:24:17.031Z,15.35
2016-07-18T01:24:47.048Z,15.43
2016-07-18T01:25:17.066Z,15.42
2016-07-18T01:25:46.366Z,15.46
2016-07-18T01:26:17.092Z,15.35
2016-07-18T01:26:47.120Z,15.4
2016-07-18T01:27:17.117Z,15.43
2016-07-18T01:27:47.139Z,15.4
2016-07-18T01:28:17.149Z,15.42
2016-07-18T01:28:47.167Z,15.36
2016-07-18T01:29:17.175Z,15.4
2016-07-18T01:29:47.194Z,15.4
2016-07-18T01:30:17.208Z,15.4
2016-07-18T01:30:47.229Z,15.4
2016-07-18T01:31:17.237Z,15.46
2016-07-18T01:31:47.256Z,15.39
2016-07-18T01:32:16.555Z,15.36
2016-07-18T01:32:47.281Z,15.37
2016-07-18T01:33:17.292Z,15.24
2016-07-18T01:33:47.316Z,15.24
2016-07-18T01:34:17.320Z,15.31
2016-07-18T01:34:47.340Z,15.11
2016-07-18T01:35:17.353Z,15.21
2016-07-18T01:35:47.370Z,15.18
2016-07-18T01:36:17.377Z,15.17
2016-07-18T01:36:47.396Z,15.11
2016-07-18T01:37:17.410Z,15.21
2016-07-18T01:37:47.426Z,15.14
2016-07-18T01:38:17.439Z,15.19
2016-07-18T01:38:47.450Z,15.14
2016-07-18T01:39:17.467Z,15.18
2016-07-18T01:39:47.475Z,15.19
2016-07-18T01:40:17.494Z,15.37
2016-07-18T01:40:47.512Z,15.24
2016-07-18T01:41:17.529Z,15.29
2016-07-18T01:41:47.535Z,15.24
2016-07-18T01:42:16.844Z,15.19
2016-07-18T01:42:47.568Z,15.33
2016-07-18T01:43:17.576Z,15.28
2016-07-18T01:43:47.595Z,15.27
2016-07-18T01:44:17.609Z,15.22
2016-07-18T01:44:47.625Z,15.29
2016-07-18T01:45:17.637Z,15.28
2016-07-18T01:45:47.653Z,15.27
2016-07-18T01:46:17.667Z,15.24
2016-07-18T01:46:47.679Z,15.25
2016-07-18T01:47:17.698Z,15.27
2016-07-18T01:47:47.716Z,15.27
2016-07-18T01:48:17.727Z,15.22
2016-07-18T01:48:47.736Z,15.24
2016-07-18T01:49:17.748Z,15.18
2016-07-18T01:49:47.766Z,15.33
2016-07-18T01:50:17.776Z,15.31
2016-07-18T01:50:47.791Z,15.22
2016-07-18T01:51:17.808Z,15.18
2016-07-18T01:51:47.827Z,15.11
2016-07-18T01:52:17.139Z,15.24
2016-07-18T01:52:47.862Z,15.18
2016-07-18T01:53:17.862Z,15.18
2016-07-18T01:53:47.875Z,15.15
2016-07-18T01:54:17.894Z,15.24
2016-07-18T01:54:47.201Z,15.17
2016-07-18T01:55:17.922Z,15.14
2016-07-18T01:55:47.941Z,15.11
2016-07-18T01:56:17.958Z,15.07
2016-07-18T01:56:47.261Z,15.22
2016-07-18T01:57:17.982Z,15.19
2016-07-18T01:57:47.999Z,15.1
2016-07-18T01:58:18.009Z,15.15
2016-07-18T01:58:48.022Z,15.15
2016-07-18T01:59:18.042Z,15.03
2016-07-18T01:59:48.050Z,15.14
2016-07-18T02:00:18.070Z,15.06
2016-07-18T02:00:48.082Z,15.02
2016-07-18T02:01:18.097Z,15.07
2016-07-18T02:01:48.109Z,15.03
2016-07-18T02:02:17.416Z,15.03
2016-07-18T02:02:47.427Z,15
2016-07-18T02:03:18.157Z,15.02
2016-07-18T02:03:48.166Z,15.02
2016-07-18T02:04:18.182Z,14.96
2016-07-18T02:04:48.191Z,15
2016-07-18T02:05:18.214Z,15.04
2016-07-18T02:05:48.224Z,14.94
2016-07-18T02:06:18.247Z,15.03
2016-07-18T02:06:48.248Z,15.04
2016-07-18T02:07:18.268Z,14.97
2016-07-18T02:07:48.280Z,14.94
2016-07-18T02:08:18.298Z,14.94
2016-07-18T02:08:48.306Z,14.86
2016-07-18T02:09:18.328Z,14.81
2016-07-18T02:09:48.340Z,14.86
2016-07-18T02:10:18.347Z,14.86
2016-07-18T02:10:48.366Z,14.84
2016-07-18T02:11:18.389Z,14.84
2016-07-18T02:11:48.397Z,14.85
2016-07-18T02:12:18.408Z,14.84
2016-07-18T02:12:48.424Z,14.78
2016-07-18T02:13:18.431Z,14.79
2016-07-18T02:13:47.740Z,14.88
2016-07-18T02:14:18.465Z,14.94
2016-07-18T02:14:48.480Z,14.88
2016-07-18T02:15:17.071Z,14.92
2016-07-18T02:15:48.512Z,15
2016-07-18T02:16:18.523Z,14.92
2016-07-18T02:16:48.543Z,14.92
2016-07-18T02:17:18.563Z,14.94
2016-07-18T02:17:48.570Z,14.91
2016-07-18T02:18:18.581Z,15.02
2016-07-18T02:18:48.589Z,14.99
2016-07-18T02:19:18.609Z,14.92
2016-07-18T02:19:48.629Z,15.03
2016-07-18T02:20:18.643Z,14.99
2016-07-18T02:20:48.648Z,15.03
2016-07-18T02:21:18.669Z,15
2016-07-18T02:21:47.970Z,15.02
2016-07-18T02:22:18.697Z,14.99
2016-07-18T02:22:48.702Z,15.07
2016-07-18T02:23:18.718Z,15.11
2016-07-18T02:23:48.739Z,15.1
2016-07-18T02:24:18.749Z,15.11
2016-07-18T02:24:48.768Z,15.17
2016-07-18T02:25:18.780Z,15.18
2016-07-18T02:25:48.790Z,15.14
2016-07-18T02:26:18.813Z,15.09
2016-07-18T02:26:48.823Z,15.21
2016-07-18T02:27:18.838Z,15.19
2016-07-18T02:27:48.849Z,15.25
2016-07-18T02:28:18.156Z,15.15
2016-07-18T02:28:48.880Z,15.19
2016-07-18T02:29:18.890Z,15.14
2016-07-18T02:29:48.908Z,15.09
2016-07-18T02:30:18.929Z,15.21
2016-07-18T02:30:48.940Z,15.21
2016-07-18T02:31:18.949Z,15.24
2016-07-18T02:31:48.969Z,15.25
2016-07-18T02:32:18.984Z,15.22
2016-07-18T02:32:48.995Z,15.18
2016-07-18T02:33:18.298Z,15.24
2016-07-18T02:33:49.019Z,15.22
2016-07-18T02:34:18.331Z,15.22
2016-07-18T02:34:48.346Z,15.11
2016-07-18T02:35:19.064Z,15.18
2016-07-18T02:35:49.089Z,15.17
2016-07-18T02:36:18.381Z,15.15
2016-07-18T02:36:49.122Z,15.18
2016-07-18T02:37:19.120Z,15.22
2016-07-18T02:37:49.141Z,15.21
2016-07-18T02:38:19.157Z,15.28
2016-07-18T02:38:49.161Z,15.22
2016-07-18T02:39:19.173Z,15.33
2016-07-18T02:39:49.194Z,15.35
2016-07-18T02:40:19.207Z,15.39
2016-07-18T02:40:48.511Z,15.33
2016-07-18T02:41:19.240Z,15.37
2016-07-18T02:41:49.250Z,15.47
2016-07-18T02:42:19.273Z,15.44
2016-07-18T02:42:49.276Z,15.44
2016-07-18T02:43:19.292Z,15.47
2016-07-18T02:43:48.601Z,15.57
2016-07-18T02:44:19.326Z,15.4
2016-07-18T02:44:49.334Z,15.4
2016-07-18T02:45:19.351Z,15.46
2016-07-18T02:45:49.363Z,15.49
2016-07-18T02:46:19.376Z,15.46
2016-07-18T02:46:49.398Z,15.44
2016-07-18T02:47:19.412Z,15.47
2016-07-18T02:47:49.437Z,15.4
2016-07-18T02:48:19.436Z,15.36
2016-07-18T02:48:49.456Z,15.39
2016-07-18T02:49:19.464Z,15.36
2016-07-18T02:49:49.473Z,15.35
2016-07-18T02:50:19.491Z,15.35
2016-07-18T02:50:49.511Z,15.39
2016-07-18T02:51:19.518Z,15.35
2016-07-18T02:51:49.535Z,15.31
2016-07-18T02:52:19.547Z,15.35
2016-07-18T02:52:49.560Z,15.21
2016-07-18T02:53:19.576Z,15.29
2016-07-18T02:53:49.594Z,15.31
2016-07-18T02:54:19.609Z,15.24
2016-07-18T02:54:49.621Z,15.24
2016-07-18T02:55:19.631Z,15.21
2016-07-18T02:55:49.653Z,15.18
2016-07-18T02:56:19.681Z,15.14
2016-07-18T02:56:49.681Z,15.21
2016-07-18T02:57:19.696Z,15.14
2016-07-18T02:57:49.714Z,15.1
2016-07-18T02:58:19.720Z,15.24
2016-07-18T02:58:49.038Z,15.17
2016-07-18T02:59:19.751Z,15.14
2016-07-18T02:59:49.765Z,15.14
2016-07-18T03:00:19.776Z,15.1
2016-07-18T03:00:49.801Z,15.15
2016-07-18T03:01:19.811Z,15.18
2016-07-18T03:01:49.819Z,15.1
2016-07-18T03:02:19.838Z,15.07
2016-07-18T03:02:49.848Z,15.14
2016-07-18T03:03:19.872Z,15.09
2016-07-18T03:03:49.876Z,15.15
2016-07-18T03:04:19.897Z,15.11
2016-07-18T03:04:49.908Z,15.14
2016-07-18T03:05:19.922Z,15.11
2016-07-18T03:05:49.932Z,15.18
2016-07-18T03:06:19.953Z,15.18
2016-07-18T03:06:49.966Z,15.22
2016-07-18T03:07:19.269Z,15.24
2016-07-18T03:07:50.000Z,15.24
2016-07-18T03:08:20.007Z,15.22
2016-07-18T03:08:50.021Z,15.19
2016-07-18T03:09:20.041Z,15.24
2016-07-18T03:09:50.052Z,15.28
2016-07-18T03:10:20.062Z,15.36
2016-07-18T03:10:50.084Z,15.31
2016-07-18T03:11:20.088Z,15.35
2016-07-18T03:11:50.108Z,15.22
2016-07-18T03:12:20.118Z,15.22
2016-07-18T03:12:50.143Z,15.24
2016-07-18T03:13:20.153Z,15.28
2016-07-18T03:13:50.167Z,15.19
2016-07-18T03:14:20.177Z,15.22
2016-07-18T03:14:50.208Z,15.18
2016-07-18T03:15:20.204Z,15.17
2016-07-18T03:15:49.516Z,15.11
2016-07-18T03:16:20.233Z,15.1
2016-07-18T03:16:50.253Z,15.09
2016-07-18T03:17:20.263Z,15.1
2016-07-18T03:17:49.570Z,15.18
2016-07-18T03:18:19.584Z,15.07
2016-07-18T03:18:50.313Z,15.22
2016-07-18T03:19:20.321Z,15.11
2016-07-18T03:19:50.338Z,15.11
2016-07-18T03:20:20.354Z,15.14
2016-07-18T03:20:49.652Z,15.09
2016-07-18T03:21:20.385Z,15.06
2016-07-18T03:21:50.394Z,15.1
2016-07-18T03:22:19.695Z,15.25
2016-07-18T03:22:50.418Z,15.18
2016-07-18T03:23:20.443Z,15.18
2016-07-18T03:23:50.455Z,15.29
2016-07-18T03:24:20.463Z,15.24
2016-07-18T03:24:50.476Z,15.25
2016-07-18T03:25:20.493Z,15.24
2016-07-18T03:25:49.794Z,15.24
2016-07-18T03:26:20.527Z,15.33
2016-07-18T03:26:50.540Z,15.35
2016-07-18T03:27:20.558Z,15.25
2016-07-18T03:27:50.580Z,15.36
2016-07-18T03:28:20.583Z,15.28
2016-07-18T03:28:50.603Z,15.36
2016-07-18T03:29:20.614Z,15.37
2016-07-18T03:29:50.625Z,15.29
2016-07-18T03:30:20.642Z,15.36
2016-07-18T03:30:49.945Z,15.39
2016-07-18T03:31:20.673Z,15.29
2016-07-18T03:31:50.677Z,15.35
2016-07-18T03:32:20.694Z,15.28
2016-07-18T03:32:50.724Z,15.29
2016-07-18T03:33:20.725Z,15.36
2016-07-18T03:33:50.737Z,15.37
2016-07-18T03:34:20.754Z,15.36
2016-07-18T03:34:50.059Z,15.22
2016-07-18T03:35:20.781Z,15.35
2016-07-18T03:35:50.812Z,15.36
2016-07-18T03:36:20.805Z,15.35
2016-07-18T03:36:50.824Z,15.33
2016-07-18T03:37:20.834Z,15.36
2016-07-18T03:37:50.857Z,15.36
2016-07-18T03:38:20.867Z,15.24
2016-07-18T03:38:50.899Z,15.24
2016-07-18T03:39:20.896Z,15.21
2016-07-18T03:39:50.914Z,15.25
2016-07-18T03:40:20.928Z,15.17
2016-07-18T03:40:50.945Z,15.24
2016-07-18T03:41:20.955Z,15.22
2016-07-18T03:41:50.966Z,15.21
2016-07-18T03:42:20.980Z,15.25
2016-07-18T03:42:50.990Z,15.15
2016-07-18T03:43:21.015Z,15.22
2016-07-18T03:43:50.317Z,15.19
2016-07-18T03:44:21.040Z,15.09
2016-07-18T03:44:51.047Z,15.11
2016-07-18T03:45:21.079Z,15.14
2016-07-18T03:45:51.085Z,15.15
2016-07-18T03:46:21.096Z,15.17
2016-07-18T03:46:51.112Z,15.07
2016-07-18T03:47:21.128Z,15.17
2016-07-18T03:47:50.426Z,15.21
2016-07-18T03:48:21.152Z,15.17
2016-07-18T03:48:51.171Z,15.21
2016-07-18T03:49:21.185Z,15.11
2016-07-18T03:49:51.195Z,15.15
2016-07-18T03:50:21.210Z,15.15
2016-07-18T03:50:51.229Z,15.18
2016-07-18T03:51:21.245Z,15.15
2016-07-18T03:51:51.258Z,15.1
2016-07-18T03:52:21.275Z,15.09
2016-07-18T03:52:51.282Z,15.02
2016-07-18T03:53:21.294Z,15.03
2016-07-18T03:53:51.308Z,15.02
2016-07-18T03:54:21.323Z,15.03
2016-07-18T03:54:51.338Z,15.06
2016-07-18T03:55:21.349Z,15.02
2016-07-18T03:55:51.382Z,15.02
2016-07-18T03:56:21.385Z,15.04
2016-07-18T03:56:51.397Z,15
2016-07-18T03:57:21.412Z,15.07
2016-07-18T03:57:51.432Z,15.09
2016-07-18T03:58:21.434Z,15.09
2016-07-18T03:58:51.459Z,15.07
2016-07-18T03:59:21.468Z,15.14
2016-07-18T03:59:51.489Z,15.11
2016-07-18T04:00:20.073Z,15.15
2016-07-18T04:00:51.515Z,15.11
2016-07-18T04:01:21.524Z,15.11
2016-07-18T04:01:51.538Z,15.07
2016-07-18T04:02:21.554Z,15.18
2016-07-18T04:02:51.565Z,15.24
2016-07-18T04:03:21.594Z,15.22
2016-07-18T04:03:51.597Z,15.37
2016-07-18T04:04:21.608Z,15.39
2016-07-18T04:04:51.623Z,15.42
2016-07-18T04:05:21.636Z,15.46
2016-07-18T04:05:51.653Z,15.4
2016-07-18T04:06:21.666Z,15.52
2016-07-18T04:06:50.974Z,15.46
2016-07-18T04:07:21.700Z,15.52
2016-07-18T04:07:51.712Z,15.46
2016-07-18T04:08:21.726Z,15.43
2016-07-18T04:08:51.734Z,15.43
2016-07-18T04:09:21.759Z,15.51
2016-07-18T04:09:51.767Z,15.4
2016-07-18T04:10:21.794Z,15.44
2016-07-18T04:10:51.801Z,15.49
2016-07-18T04:11:21.829Z,15.57
2016-07-18T04:11:51.827Z,15.46
2016-07-18T04:12:21.835Z,15.46
2016-07-18T04:12:51.854Z,15.57
2016-07-18T04:13:21.864Z,15.55
2016-07-18T04:13:51.895Z,15.44
2016-07-18T04:14:21.896Z,15.42
2016-07-18T04:14:51.906Z,15.52
2016-07-18T04:15:21.926Z,15.52
2016-07-18T04:15:51.941Z,15.55
2016-07-18T04:16:21.955Z,15.52
2016-07-18T04:16:51.969Z,15.57
2016-07-18T04:17:21.984Z,15.46
2016-07-18T04:17:52.006Z,15.57
2016-07-18T04:18:21.300Z,15.54
2016-07-18T04:18:52.027Z,15.68
2016-07-18T04:19:22.039Z,15.62
2016-07-18T04:19:52.051Z,15.65
2016-07-18T04:20:22.068Z,15.65
2016-07-18T04:20:52.087Z,15.67
2016-07-18T04:21:22.097Z,15.73
2016-07-18T04:21:51.407Z,15.77
2016-07-18T04:22:22.130Z,15.9
2016-07-18T04:22:52.146Z,15.83
2016-07-18T04:23:22.154Z,15.95
2016-07-18T04:23:52.168Z,15.95
2016-07-18T04:24:22.182Z,16
2016-07-18T04:24:52.194Z,16.1
2016-07-18T04:25:22.209Z,16.09
2016-07-18T04:25:52.226Z,16.21
2016-07-18T04:26:22.240Z,16.24
2016-07-18T04:26:52.250Z,16.33
2016-07-18T04:27:22.277Z,16.38
2016-07-18T04:27:52.281Z,16.36
2016-07-18T04:28:22.295Z,16.51
2016-07-18T04:28:52.310Z,16.43
2016-07-18T04:29:22.330Z,16.47
2016-07-18T04:29:52.338Z,16.49
2016-07-18T04:30:22.352Z,16.46
2016-07-18T04:30:52.370Z,16.42
2016-07-18T04:31:21.679Z,16.49
2016-07-18T04:31:52.397Z,16.49
2016-07-18T04:32:22.418Z,16.5
2016-07-18T04:32:52.432Z,16.51
2016-07-18T04:33:22.451Z,16.5
2016-07-18T04:33:52.456Z,16.53
2016-07-18T04:34:22.473Z,16.53
2016-07-18T04:34:51.787Z,16.53
2016-07-18T04:35:22.499Z,16.51
2016-07-18T04:35:52.518Z,16.5
2016-07-18T04:36:22.532Z,16.64
2016-07-18T04:36:52.546Z,16.51
2016-07-18T04:37:22.553Z,16.56
2016-07-18T04:37:52.578Z,16.41
2016-07-18T04:38:22.590Z,16.51
2016-07-18T04:38:51.888Z,16.51
2016-07-18T04:39:22.610Z,16.43
2016-07-18T04:39:51.923Z,16.53
2016-07-18T04:40:22.645Z,16.46
2016-07-18T04:40:52.657Z,16.41
2016-07-18T04:41:21.966Z,16.46
2016-07-18T04:41:52.697Z,16.57
2016-07-18T04:42:22.711Z,16.54
2016-07-18T04:42:52.721Z,16.58
2016-07-18T04:43:22.734Z,16.53
2016-07-18T04:43:52.755Z,16.65
2016-07-18T04:44:22.765Z,16.72
2016-07-18T04:44:52.777Z,16.74
2016-07-18T04:45:22.792Z,16.75
2016-07-18T04:45:52.806Z,16.75
2016-07-18T04:46:22.819Z,16.89
2016-07-18T04:46:52.836Z,16.84
2016-07-18T04:47:22.845Z,16.99
2016-07-18T04:47:52.869Z,17.15
2016-07-18T04:48:22.879Z,17.16
2016-07-18T04:48:52.897Z,17.24
2016-07-18T04:49:22.907Z,17.33
2016-07-18T04:49:52.210Z,17.31
2016-07-18T04:50:22.931Z,17.48
2016-07-18T04:50:52.952Z,17.56
2016-07-18T04:51:22.963Z,17.68
2016-07-18T04:51:52.983Z,17.83
2016-07-18T04:52:22.995Z,17.89
2016-07-18T04:52:53.017Z,18.01
2016-07-18T04:53:23.027Z,18.16
2016-07-18T04:53:53.047Z,18.16
2016-07-18T04:54:23.051Z,18.31
2016-07-18T04:54:53.067Z,18.4
2016-07-18T04:55:22.369Z,18.43
2016-07-18T04:55:53.095Z,18.49
2016-07-18T04:56:23.119Z,18.56
2016-07-18T04:56:53.121Z,18.65
2016-07-18T04:57:23.137Z,18.62
2016-07-18T04:57:53.154Z,18.7
2016-07-18T04:58:23.175Z,18.7
2016-07-18T04:58:52.476Z,18.7
2016-07-18T04:59:23.201Z,18.75
2016-07-18T04:59:53.228Z,18.78
2016-07-18T05:00:22.522Z,18.8
2016-07-18T05:00:53.242Z,18.81
2016-07-18T05:01:23.262Z,18.84
2016-07-18T05:01:53.288Z,18.98
2016-07-18T05:02:23.287Z,19
2016-07-18T05:02:53.302Z,18.99
2016-07-18T05:03:23.326Z,19.07
2016-07-18T05:03:53.331Z,19.09
2016-07-18T05:04:23.348Z,19
2016-07-18T05:04:52.658Z,19.04
2016-07-18T05:05:22.670Z,19
2016-07-18T05:05:52.686Z,18.9
2016-07-18T05:06:23.416Z,18.9
2016-07-18T05:06:53.423Z,18.88
2016-07-18T05:07:23.442Z,18.95
2016-07-18T05:07:53.454Z,18.9
2016-07-18T05:08:22.762Z,19
2016-07-18T05:08:52.778Z,18.9
2016-07-18T05:09:23.502Z,18.9
2016-07-18T05:09:52.803Z,18.98
2016-07-18T05:10:23.538Z,18.96
2016-07-18T05:10:53.542Z,18.98
2016-07-18T05:11:23.559Z,18.99
2016-07-18T05:11:53.573Z,19
2016-07-18T05:12:23.587Z,18.92
2016-07-18T05:12:53.602Z,18.99
2016-07-18T05:13:23.629Z,19
2016-07-18T05:13:53.628Z,18.98
2016-07-18T05:14:23.646Z,19
2016-07-18T05:14:53.666Z,19.12
2016-07-18T05:15:23.677Z,19.08
2016-07-18T05:15:53.694Z,18.99
2016-07-18T05:16:23.712Z,19.02
2016-07-18T05:16:53.723Z,19.09
2016-07-18T05:17:23.737Z,19.08
2016-07-18T05:17:53.752Z,19.04
2016-07-18T05:18:23.772Z,19.08
2016-07-18T05:18:53.780Z,18.99
2016-07-18T05:19:23.802Z,19.08
2016-07-18T05:19:53.827Z,19.04
2016-07-18T05:20:23.121Z,19.08
2016-07-18T05:20:53.842Z,19.02
2016-07-18T05:21:23.856Z,19
2016-07-18T05:21:53.871Z,19.11
2016-07-18T05:22:23.899Z,19.09
2016-07-18T05:22:53.899Z,18.99
2016-07-18T05:23:23.930Z,19.12
2016-07-18T05:23:53.236Z,19.09
2016-07-18T05:24:23.951Z,19.09
2016-07-18T05:24:53.961Z,19.04
2016-07-18T05:25:23.287Z,19.11
2016-07-18T05:25:53.996Z,19.09
2016-07-18T05:26:24.012Z,19.09
2016-07-18T05:26:54.023Z,19.19
2016-07-18T05:27:24.037Z,19.26
2016-07-18T05:27:54.056Z,19.22
2016-07-18T05:28:24.067Z,19.31
2016-07-18T05:28:54.084Z,19.37
2016-07-18T05:29:24.101Z,19.37
2016-07-18T05:29:54.115Z,19.48
2016-07-18T05:30:24.129Z,19.54
2016-07-18T05:30:54.145Z,19.56
2016-07-18T05:31:24.162Z,19.51
2016-07-18T05:31:54.174Z,19.56
2016-07-18T05:32:24.189Z,19.63
2016-07-18T05:32:54.202Z,19.67
2016-07-18T05:33:24.220Z,19.58
2016-07-18T05:33:53.525Z,19.71
2016-07-18T05:34:24.258Z,19.71
2016-07-18T05:34:54.267Z,19.69
2016-07-18T05:35:24.286Z,19.69
2016-07-18T05:35:53.589Z,19.7
2016-07-18T05:36:24.313Z,19.67
2016-07-18T05:36:54.333Z,19.58
2016-07-18T05:37:24.345Z,19.66
2016-07-18T05:37:53.649Z,19.66
2016-07-18T05:38:23.665Z,19.62
2016-07-18T05:38:54.387Z,19.69
2016-07-18T05:39:24.405Z,19.63
2016-07-18T05:39:54.420Z,19.77
2016-07-18T05:40:24.433Z,19.73
2016-07-18T05:40:54.452Z,19.74
2016-07-18T05:41:24.469Z,19.63
2016-07-18T05:41:54.490Z,19.81
2016-07-18T05:42:24.506Z,19.81
2016-07-18T05:42:54.514Z,19.74
2016-07-18T05:43:24.519Z,19.74
2016-07-18T05:43:54.539Z,19.74
2016-07-18T05:44:24.554Z,19.81
2016-07-18T05:44:53.860Z,19.76
2016-07-18T05:45:23.879Z,19.82
2016-07-18T05:45:54.601Z,19.82
2016-07-18T05:46:23.903Z,19.86
2016-07-18T05:46:54.640Z,19.86
2016-07-18T05:47:24.652Z,19.86
2016-07-18T05:47:54.658Z,19.85
2016-07-18T05:48:23.966Z,19.82
2016-07-18T05:48:54.690Z,19.82
2016-07-18T05:49:24.008Z,19.89
2016-07-18T05:49:54.019Z,19.99
2016-07-18T05:50:24.739Z,19.88
2016-07-18T05:50:54.752Z,19.85
2016-07-18T05:51:24.064Z,19.85
2016-07-18T05:51:54.077Z,19.85
2016-07-18T05:52:24.090Z,19.84
2016-07-18T05:52:54.820Z,19.81
2016-07-18T05:53:24.828Z,19.85
2016-07-18T05:53:54.849Z,19.89
2016-07-18T05:54:24.864Z,19.81
2016-07-18T05:54:54.876Z,19.85
2016-07-18T05:55:24.890Z,19.74
2016-07-18T05:55:54.922Z,19.77
2016-07-18T05:56:24.921Z,19.77
2016-07-18T05:56:54.234Z,19.73
2016-07-18T05:57:24.954Z,19.77
2016-07-18T05:57:54.975Z,19.71
2016-07-18T05:58:24.985Z,19.79
2016-07-18T05:58:53.580Z,19.73
2016-07-18T05:59:24.305Z,19.73
2016-07-18T05:59:55.030Z,19.73
2016-07-18T06:00:24.338Z,19.76
2016-07-18T06:00:54.356Z,19.7
2016-07-18T06:01:24.373Z,19.74
2016-07-18T06:01:55.089Z,19.74
2016-07-18T06:02:25.105Z,19.81
2016-07-18T06:02:55.120Z,19.81
2016-07-18T06:03:25.139Z,19.77
2016-07-18T06:03:55.160Z,19.85
2016-07-18T06:04:24.455Z,19.84
2016-07-18T06:04:55.191Z,19.82
2016-07-18T06:05:25.196Z,19.94
2016-07-18T06:05:55.221Z,19.82
2016-07-18T06:06:25.226Z,19.95
2016-07-18T06:06:53.828Z,19.99
2016-07-18T06:07:25.259Z,19.99
2016-07-18T06:07:55.283Z,19.99
2016-07-18T06:08:25.285Z,20.06
2016-07-18T06:08:55.311Z,20.07
2016-07-18T06:09:25.321Z,20.13
2016-07-18T06:09:55.333Z,20.09
2016-07-18T06:10:24.644Z,20.14
2016-07-18T06:10:55.369Z,20.25
2016-07-18T06:11:25.388Z,20.25
2016-07-18T06:11:55.399Z,20.22
2016-07-18T06:12:25.415Z,20.14
2016-07-18T06:12:55.430Z,20.18
2016-07-18T06:13:24.744Z,20.26
2016-07-18T06:13:55.469Z,20.31
2016-07-18T06:14:24.763Z,20.28
2016-07-18T06:14:54.781Z,20.36
2016-07-18T06:15:25.499Z,20.43
2016-07-18T06:15:55.525Z,20.41
2016-07-18T06:16:25.541Z,20.41
2016-07-18T06:16:54.843Z,20.56
2016-07-18T06:17:25.570Z,20.59
2016-07-18T06:17:55.587Z,20.74
2016-07-18T06:18:25.600Z,20.82
2016-07-18T06:18:54.911Z,20.87
2016-07-18T06:19:24.925Z,21.03
2016-07-18T06:19:55.640Z,21.09
2016-07-18T06:20:24.966Z,21.22
2016-07-18T06:20:54.971Z,21.33
2016-07-18T06:21:25.697Z,21.33
2016-07-18T06:21:55.001Z,21.32
2016-07-18T06:22:25.014Z,21.5
2016-07-18T06:22:55.030Z,21.48
2016-07-18T06:23:25.759Z,21.46
2016-07-18T06:23:55.063Z,21.51
2016-07-18T06:24:25.779Z,21.51
2016-07-18T06:24:55.804Z,21.45
2016-07-18T06:25:25.111Z,21.33
2016-07-18T06:25:55.831Z,21.37
2016-07-18T06:26:25.844Z,21.39
2016-07-18T06:26:55.860Z,21.43
2016-07-18T06:27:25.884Z,21.37
2016-07-18T06:27:55.185Z,21.5
2016-07-18T06:28:25.200Z,21.51